avis per tempestes more information blitzortung!


avis per Pluja more information rain snow radar


Visita la nostra xarxa de llocs de meteo:

Template documentation
and downloads

And another site



Rain From: 17-08-2018 13:00 Until: 22:59 warning for: Rain Level: Orange info button
Thunderstorms From: 17-08-2018 12:00 Until: 18-08-2018 08:59 warning for: Thunderstorms Level: Yellow info button

Pagina Historial Weather Underground text

Diari Resum Juliol 17, 2017 Unitats:  Imperial    Mètric   Tant
« Previous Dia
SegĂźent Dia »
Diari Setmana Mensual Anual Personalitzada
  Maxima: Minima: Media:
Temperatura: TemperatureC °F 20.5 °F 26.7 °F
Punt de rosada: DewpointC °F 11.6 °F 14.6 °F
Humitat: Humidity % 31 % 49 %
Wind Speed: WindSpeedKMH mph 0.0 mph 9.6 mph
RĂ fegues de vent: WindSpeedGustKMH mph - -
Vent:- - ESE
Pression baro: PressurehPa in 1014.8 in -
Precipitacions: 0.0 in    
Historical Graphs
 
 
Dades de taula per Juliol 17, 2017
Temps Temperatura Punt de rosada Pression baro Vent Wind Speed RĂ fegues de vent Humitat Rainfall Rate (Hourly)
TemperatureC °F DewpointC °F PressurehPa in Calm     Humidity % HourlyPrecipMM in
00:00 21.7 °F 16.7 °F 1015.8 in Calm   3.2 mph 73 % 0.0 in
00:02 23.2 °F 16.0 °F 1017.8 in WSW 5.0 mph 5.0 mph 64 % 0.0 in
00:07 23.2 °F 16.3 °F 1016.8 in WSW 3.9 mph 3.9 mph 65 % 0.0 in
00:10 21.6 °F 16.6 °F 1015.8 in Calm   3.2 mph 73 % 0.0 in
00:20 21.5 °F 16.4 °F 1015.8 in SW 1.6 mph 1.6 mph 73 % 0.0 in
00:30 21.6 °F 16.6 °F 1016.8 in South 1.6 mph 3.2 mph 73 % 0.0 in
00:40 21.6 °F 16.6 °F 1016.8 in ENE 1.6 mph 3.2 mph 73 % 0.0 in
00:50 21.5 °F 16.2 °F 1016.8 in NE 1.6 mph 3.2 mph 72 % 0.0 in
01:00 21.4 °F 15.9 °F 1016.8 in NE 3.2 mph 4.8 mph 71 % 0.0 in
01:10 21.2 °F 15.7 °F 1016.8 in NNE 1.6 mph 4.8 mph 71 % 0.0 in
01:20 21.0 °F 15.6 °F 1016.8 in Calm   4.8 mph 71 % 0.0 in
01:30 20.8 °F 15.6 °F 1016.8 in NNE 1.6 mph 3.2 mph 72 % 0.0 in
01:40 20.6 °F 15.4 °F 1016.8 in NE 1.6 mph 3.2 mph 72 % 0.0 in
01:50 20.6 °F 15.4 °F 1016.8 in NE 1.6 mph 3.2 mph 72 % 0.0 in
02:00 20.5 °F 15.3 °F 1017.8 in Calm   3.2 mph 72 % 0.0 in
02:10 20.6 °F 15.4 °F 1017.8 in Calm   1.6 mph 72 % 0.0 in
02:20 20.6 °F 15.4 °F 1017.8 in Calm   1.6 mph 72 % 0.0 in
02:30 21.2 °F 15.9 °F 1017.8 in Calm     72 % 0.0 in
02:40 21.5 °F 16.0 °F 1017.8 in WSW 1.6 mph   71 % 0.0 in
02:50 22.4 °F 16.9 °F 1017.8 in NNW 3.2 mph 3.2 mph 71 % 0.0 in
03:00 22.7 °F 17.2 °F 1017.8 in NNE 3.2 mph 4.8 mph 71 % 0.0 in
03:10 23.0 °F 17.2 °F 1017.8 in NE 1.6 mph 4.8 mph 70 % 0.0 in
03:20 23.2 °F 17.4 °F 1017.8 in NE 1.6 mph 4.8 mph 70 % 0.0 in
03:30 23.3 °F 17.3 °F 1017.8 in NE 4.8 mph 6.4 mph 69 % 0.0 in
03:40 23.7 °F 17.9 °F 1017.8 in ENE 3.2 mph 4.8 mph 70 % 0.0 in
03:50 23.7 °F 17.9 °F 1017.8 in ENE 1.6 mph 4.8 mph 70 % 0.0 in
04:00 24.2 °F 18.2 °F 1017.8 in East 4.8 mph 4.8 mph 69 % 0.0 in
04:10 23.8 °F 18.2 °F 1017.8 in ESE 4.8 mph 6.4 mph 71 % 0.0 in
04:30 24.8 °F 18.7 °F 1017.8 in ESE 4.8 mph 6.4 mph 69 % 0.0 in
04:40 24.9 °F 18.8 °F 1017.8 in East 3.2 mph 4.8 mph 69 % 0.0 in
04:50 25.0 °F 18.4 °F 1017.8 in ESE 3.2 mph 6.4 mph 67 % 0.0 in
05:00 25.9 °F 19.1 °F 1017.8 in SE 4.8 mph 8.0 mph 66 % 0.0 in
05:10 26.1 °F 18.5 °F 1017.8 in ESE 8.0 mph 8.0 mph 63 % 0.0 in
05:20 26.1 °F 18.2 °F 1017.8 in East 4.8 mph 6.4 mph 62 % 0.0 in
05:30 26.3 °F 18.4 °F 1016.8 in East 1.6 mph 6.4 mph 62 % 0.0 in
05:40 27.3 °F 18.8 °F 1017.8 in East 3.2 mph 8.0 mph 60 % 0.0 in
10:52 27.2 °F 17.9 °F 1017.8 in East 6.4 mph 6.4 mph 57 % 0.0 in
10:58 27.4 °F 18.4 °F 1017.8 in ENE 9.3 mph 9.3 mph 58 % 0.0 in
11:03 27.3 °F 17.8 °F 1017.8 in SSW 9.3 mph 9.3 mph 56 % 0.0 in
11:08 27.6 °F 18.1 °F 1017.8 in ENE 6.1 mph 6.1 mph 56 % 0.0 in
11:13 27.8 °F 17.7 °F 1017.8 in ENE 13.7 mph 13.7 mph 54 % 0.0 in
11:18 27.7 °F 17.6 °F 1017.8 in East 5.6 mph 5.6 mph 54 % 0.0 in
11:23 28.0 °F 17.5 °F 1017.8 in NE 9.3 mph 9.3 mph 53 % 0.0 in
11:28 28.2 °F 17.7 °F 1017.8 in East 11.1 mph 11.1 mph 53 % 0.0 in
11:29 28.2 °F 17.7 °F 1017.8 in ENE 11.1 mph 11.1 mph 53 % 0.0 in
11:34 28.2 °F 17.4 °F 1017.8 in ENE 11.1 mph 11.1 mph 52 % 0.0 in
11:39 28.3 °F 17.5 °F 1017.8 in ENE 12.2 mph 12.2 mph 52 % 0.0 in
11:44 28.1 °F 17.3 °F 1017.8 in SE 9.3 mph 9.3 mph 52 % 0.0 in
11:49 28.4 °F 17.3 °F 1017.8 in ESE 13.0 mph 13.0 mph 51 % 0.0 in
11:54 28.7 °F 17.9 °F 1017.8 in North 11.1 mph 11.1 mph 52 % 0.0 in
11:59 28.8 °F 17.3 °F 1017.8 in ESE 13.0 mph 13.0 mph 50 % 0.0 in
12:04 28.8 °F 17.7 °F 1017.8 in ENE 14.8 mph 14.8 mph 51 % 0.0 in
12:09 29.1 °F 17.3 °F 1017.8 in East 9.3 mph 9.3 mph 49 % 0.0 in
12:14 29.0 °F 16.6 °F 1017.8 in ENE 16.7 mph 16.7 mph 47 % 0.0 in
12:16 29.1 °F 15.9 °F 1017.8 in ESE 16.7 mph 16.7 mph 45 % 0.0 in
12:21 29.3 °F 15.4 °F 1017.8 in SSE 18.5 mph 18.5 mph 43 % 0.0 in
12:26 29.9 °F 14.4 °F 1017.8 in East 9.5 mph 9.5 mph 39 % 0.0 in
12:31 29.8 °F 14.7 °F 1017.8 in SE 15.8 mph 15.8 mph 40 % 0.0 in
12:36 30.0 °F 14.9 °F 1017.8 in NE 14.8 mph 14.8 mph 40 % 0.0 in
12:41 30.0 °F 14.1 °F 1016.8 in ENE 16.7 mph 16.7 mph 38 % 0.0 in
12:46 29.9 °F 13.6 °F 1016.8 in ESE 13.0 mph 13.0 mph 37 % 0.0 in
12:51 29.6 °F 13.4 °F 1017.8 in ESE 9.3 mph 9.3 mph 37 % 0.0 in
12:56 29.5 °F 13.3 °F 1017.8 in East 22.2 mph 22.2 mph 37 % 0.0 in
13:01 29.9 °F 13.6 °F 1017.8 in ENE 14.8 mph 14.8 mph 37 % 0.0 in
13:06 29.8 °F 13.1 °F 1017.8 in ESE 20.4 mph 20.4 mph 36 % 0.0 in
13:11 29.8 °F 13.1 °F 1017.8 in ESE 14.8 mph 14.8 mph 36 % 0.0 in
13:16 29.6 °F 12.5 °F 1017.8 in ESE 24.1 mph 24.1 mph 35 % 0.0 in
13:21 29.7 °F 12.6 °F 1017.8 in East 14.5 mph 24.1 mph 35 % 0.0 in
13:26 30.0 °F 12.4 °F 1017.8 in ESE 14.8 mph 14.8 mph 34 % 0.0 in
13:32 29.7 °F 12.6 °F 1017.8 in SSE 14.8 mph 14.8 mph 35 % 0.0 in
13:37 29.8 °F 12.7 °F 1017.8 in ESE 20.9 mph 20.9 mph 35 % 0.0 in
13:42 29.9 °F 13.2 °F 1017.8 in NNE 20.4 mph 20.4 mph 36 % 0.0 in
13:47 29.8 °F 13.1 °F 1017.8 in SE 25.6 mph 25.6 mph 36 % 0.0 in
13:52 29.8 °F 13.1 °F 1017.8 in SE 25.9 mph 25.9 mph 36 % 0.0 in
13:57 29.6 °F 13.4 °F 1017.8 in ESE 20.6 mph 20.6 mph 37 % 0.0 in
14:02 29.6 °F 13.4 °F 1017.8 in ENE 20.4 mph 20.4 mph 37 % 0.0 in
14:07 29.6 °F 13.8 °F 1017.8 in ESE 20.4 mph 20.4 mph 38 % 0.0 in
14:12 29.9 °F 14.1 °F 1017.8 in ESE 22.2 mph 22.2 mph 38 % 0.0 in
14:17 29.8 °F 13.9 °F 1017.8 in SE 16.9 mph 16.9 mph 38 % 0.0 in
14:22 29.8 °F 13.9 °F 1017.8 in ESE 20.4 mph 20.4 mph 38 % 0.0 in
14:27 29.6 °F 13.8 °F 1017.8 in SSE 20.4 mph 20.4 mph 38 % 0.0 in
14:32 29.8 °F 13.9 °F 1017.8 in ENE 20.4 mph 20.4 mph 38 % 0.0 in
14:37 30.1 °F 13.8 °F 1016.8 in ESE 16.7 mph 16.7 mph 37 % 0.0 in
14:42 30.2 °F 13.5 °F 1016.8 in SSW 13.0 mph 13.0 mph 36 % 0.0 in
14:47 30.5 °F 13.7 °F 1016.8 in ESE 14.8 mph 14.8 mph 36 % 0.0 in
14:52 30.4 °F 13.2 °F 1016.8 in SE 11.1 mph 11.1 mph 35 % 0.0 in
14:57 30.2 °F 12.6 °F 1016.8 in ESE 14.8 mph 14.8 mph 34 % 0.0 in
15:02 30.3 °F 12.2 °F 1016.8 in East 15.6 mph 15.6 mph 33 % 0.0 in
15:07 30.1 °F 12.1 °F 1015.8 in ESE 16.7 mph 16.7 mph 33 % 0.0 in
15:08 30.1 °F 12.1 °F 1015.8 in ESE 16.7 mph 16.7 mph 33 % 0.0 in
15:13 30.7 °F 12.6 °F 1015.8 in ENE 16.7 mph 16.7 mph 33 % 0.0 in
15:18 30.5 °F 12.4 °F 1015.8 in ESE 22.2 mph 22.2 mph 33 % 0.0 in
15:23 30.6 °F 12.5 °F 1016.8 in ENE 13.0 mph 13.0 mph 33 % 0.0 in
15:28 30.6 °F 12.5 °F 1016.8 in ESE 16.7 mph 16.7 mph 33 % 0.0 in
15:33 30.2 °F 12.2 °F 1016.8 in ESE 27.8 mph 27.8 mph 33 % 0.0 in
15:34 30.2 °F 12.2 °F 1016.8 in East 27.8 mph 27.8 mph 33 % 0.0 in
15:39 30.4 °F 12.3 °F 1016.8 in NNE 20.4 mph 20.4 mph 33 % 0.0 in
15:44 30.6 °F 12.5 °F 1016.8 in East 16.7 mph 16.7 mph 33 % 0.0 in
15:49 30.8 °F 12.7 °F 1016.8 in ESE 20.4 mph 20.4 mph 33 % 0.0 in
15:54 31.0 °F 12.4 °F 1016.8 in ESE 16.7 mph 16.7 mph 32 % 0.0 in
15:59 31.3 °F 13.1 °F 1016.8 in ESE 13.7 mph 13.7 mph 33 % 0.0 in
16:04 30.7 °F 12.1 °F 1016.8 in East 16.9 mph 16.9 mph 32 % 0.0 in
16:09 30.5 °F 12.4 °F 1015.8 in SSE 14.8 mph 14.8 mph 33 % 0.0 in
16:14 31.0 °F 12.4 °F 1015.8 in ESE 9.3 mph 9.3 mph 32 % 0.0 in
16:19 31.0 °F 12.4 °F 1015.8 in East 11.1 mph 11.1 mph 32 % 0.0 in
16:24 31.1 °F 12.0 °F 1015.8 in ESE 11.1 mph 11.1 mph 31 % 0.0 in
16:29 31.5 °F 12.3 °F 1015.8 in ESE 13.0 mph 13.0 mph 31 % 0.0 in
16:34 30.8 °F 12.2 °F 1015.8 in SE 11.1 mph 11.1 mph 32 % 0.0 in
16:40 30.7 °F 12.2 °F 1015.8 in ESE 11.3 mph 20.9 mph 32 % 0.0 in
16:45 31.0 °F 12.3 °F 1015.8 in ESE 9.7 mph 12.9 mph 32 % 0.0 in
16:50 31.2 °F 12.6 °F 1015.8 in ESE 12.6 mph 12.6 mph 32 % 0.0 in
16:55 30.4 °F 12.3 °F 1015.8 in ENE 14.8 mph 14.8 mph 33 % 0.0 in
17:00 30.6 °F 12.5 °F 1015.8 in SSE 16.7 mph 16.7 mph 33 % 0.0 in
17:05 30.3 °F 12.2 °F 1015.8 in East 20.9 mph 20.9 mph 33 % 0.0 in
17:10 30.2 °F 12.2 °F 1016.8 in ESE 16.7 mph 16.7 mph 33 % 0.0 in
17:15 30.5 °F 11.9 °F 1016.8 in ESE 16.9 mph 16.9 mph 32 % 0.0 in
17:20 30.3 °F 12.3 °F 1016.8 in ESE 14.5 mph 16.1 mph 33 % 0.0 in
17:25 30.1 °F 12.1 °F 1015.8 in East 14.8 mph 14.8 mph 33 % 0.0 in
17:30 30.0 °F 11.9 °F 1015.8 in ESE 18.5 mph 18.5 mph 33 % 0.0 in
17:35 29.8 °F 11.8 °F 1015.8 in East 12.9 mph 19.3 mph 33 % 0.0 in
17:40 30.0 °F 11.9 °F 1014.8 in ESE 11.3 mph 19.3 mph 33 % 0.0 in
17:45 29.8 °F 12.2 °F 1014.8 in ESE 20.4 mph 20.4 mph 34 % 0.0 in
17:50 29.8 °F 12.2 °F 1014.8 in ENE 15.8 mph 15.8 mph 34 % 0.0 in
17:55 29.7 °F 12.6 °F 1015.8 in NE 16.7 mph 16.7 mph 35 % 0.0 in
18:00 29.6 °F 12.5 °F 1015.8 in SE 16.7 mph 16.7 mph 35 % 0.0 in
18:05 29.5 °F 12.4 °F 1015.8 in ESE 16.7 mph 16.7 mph 35 % 0.0 in
18:10 29.4 °F 12.3 °F 1014.8 in ESE 12.9 mph 16.1 mph 35 % 0.0 in
18:15 29.5 °F 12.4 °F 1014.8 in East 9.7 mph 16.1 mph 35 % 0.0 in
18:20 29.4 °F 12.3 °F 1014.8 in ESE 9.7 mph 17.7 mph 35 % 0.0 in
18:25 29.4 °F 12.3 °F 1015.8 in ESE 12.9 mph 19.3 mph 35 % 0.0 in
18:30 29.1 °F 12.1 °F 1015.8 in East 16.7 mph 16.7 mph 35 % 0.0 in
18:35 29.0 °F 12.0 °F 1015.8 in ESE 13.0 mph 13.0 mph 35 % 0.0 in
18:40 28.9 °F 12.3 °F 1015.8 in SE 13.0 mph 13.0 mph 36 % 0.0 in
18:45 28.9 °F 12.3 °F 1015.8 in East 14.8 mph 14.8 mph 36 % 0.0 in
18:50 29.0 °F 12.0 °F 1015.8 in SE 9.5 mph 9.5 mph 35 % 0.0 in
18:55 28.7 °F 11.7 °F 1015.8 in ESE 11.3 mph 16.1 mph 35 % 0.0 in
19:00 28.6 °F 12.1 °F 1015.8 in ESE 9.7 mph 16.1 mph 36 % 0.0 in
19:05 28.5 °F 11.6 °F 1015.8 in ESE 9.7 mph 16.1 mph 35 % 0.0 in
19:10 28.5 °F 11.6 °F 1015.8 in ESE 9.7 mph 12.9 mph 35 % 0.0 in
19:15 28.7 °F 11.7 °F 1015.8 in ESE 8.0 mph 12.9 mph 35 % 0.0 in
19:20 28.8 °F 11.8 °F 1015.8 in ESE 8.7 mph 8.7 mph 35 % 0.0 in
19:25 28.6 °F 11.6 °F 1014.8 in ESE 11.1 mph 11.1 mph 35 % 0.0 in
19:30 28.4 °F 11.9 °F 1014.8 in SSE 13.0 mph 13.0 mph 36 % 0.0 in
19:35 28.3 °F 11.8 °F 1014.8 in ENE 16.7 mph 16.7 mph 36 % 0.0 in
19:40 28.3 °F 12.2 °F 1015.8 in ESE 9.5 mph 9.5 mph 37 % 0.0 in
19:45 28.2 °F 12.1 °F 1015.8 in ESE 11.1 mph 11.1 mph 37 % 0.0 in
19:50 28.3 °F 12.2 °F 1015.8 in South 9.3 mph 9.3 mph 37 % 0.0 in
19:55 28.3 °F 11.8 °F 1015.8 in South 7.4 mph 7.4 mph 36 % 0.0 in
20:00 28.2 °F 12.1 °F 1015.8 in SSW 3.7 mph 6.4 mph 37 % 0.0 in
20:05 27.8 °F 12.2 °F 1015.8 in SE 11.3 mph 11.3 mph 38 % 0.0 in
20:10 27.5 °F 11.9 °F 1015.8 in East 9.3 mph 9.3 mph 38 % 0.0 in
20:15 27.3 °F 12.1 °F 1015.8 in East 10.3 mph 10.3 mph 39 % 0.0 in
20:20 27.1 °F 12.3 °F 1015.8 in ESE 10.0 mph 10.0 mph 40 % 0.0 in
20:25 26.9 °F 12.9 °F 1015.8 in ESE 11.1 mph 11.1 mph 42 % 0.0 in
20:30 26.7 °F 13.1 °F 1015.8 in East 11.1 mph 11.1 mph 43 % 0.0 in
20:35 26.5 °F 12.9 °F 1015.8 in ESE 9.3 mph 9.3 mph 43 % 0.0 in
20:40 26.4 °F 13.5 °F 1014.8 in ESE 4.8 mph 11.3 mph 45 % 0.0 in
20:45 26.2 °F 13.7 °F 1014.8 in SE 9.3 mph 9.3 mph 46 % 0.0 in
20:50 26.0 °F 14.1 °F 1014.8 in ESE 9.3 mph 9.3 mph 48 % 0.0 in
20:55 25.8 °F 14.3 °F 1015.8 in East 13.0 mph 13.0 mph 49 % 0.0 in
21:00 25.7 °F 14.5 °F 1015.8 in ENE 9.3 mph 9.3 mph 50 % 0.0 in
21:05 25.6 °F 14.7 °F 1015.8 in ENE 9.3 mph 9.3 mph 51 % 0.0 in
21:10 25.5 °F 14.6 °F 1015.8 in ESE 5.6 mph 5.6 mph 51 % 0.0 in
21:15 25.4 °F 14.8 °F 1015.8 in ESE 4.2 mph 4.2 mph 52 % 0.0 in
21:20 25.3 °F 15.1 °F 1015.8 in ENE 5.3 mph 5.8 mph 53 % 0.0 in
21:25 25.2 °F 14.9 °F 1015.8 in East 7.4 mph 7.4 mph 53 % 0.0 in
21:30 25.1 °F 14.8 °F 1015.8 in East 3.2 mph 8.0 mph 53 % 0.0 in
21:35 25.0 °F 15.1 °F 1015.8 in ESE 5.6 mph 5.6 mph 54 % 0.0 in
21:40 24.9 °F 15.5 °F 1016.8 in ENE 7.4 mph 7.4 mph 56 % 0.0 in
21:45 24.7 °F 15.9 °F 1016.8 in East 7.4 mph 7.4 mph 58 % 0.0 in
21:50 22.0 °F 16.5 °F 1015.8 in Calm     71 % 0.0 in
21:51 24.7 °F 16.2 °F 1016.8 in ESE 7.4 mph 7.4 mph 59 % 0.0 in
21:56 24.6 °F 15.8 °F 1016.8 in ESE 5.6 mph 5.6 mph 58 % 0.0 in
22:00 21.9 °F 16.6 °F 1015.8 in Calm     72 % 0.0 in
22:01 24.6 °F 16.3 °F 1016.8 in ENE 5.8 mph 5.8 mph 60 % 0.0 in
22:06 24.5 °F 16.2 °F 1016.8 in ESE 5.8 mph 5.8 mph 60 % 0.0 in
22:10 21.9 °F 16.6 °F 1015.8 in Calm     72 % 0.0 in
22:11 24.4 °F 16.1 °F 1016.8 in East 7.4 mph 7.4 mph 60 % 0.0 in
22:17 24.4 °F 16.1 °F 1016.8 in SE 7.4 mph 7.4 mph 60 % 0.0 in
22:20 21.9 °F 16.6 °F 1015.8 in Calm     72 % 0.0 in
22:22 24.3 °F 16.3 °F 1016.8 in SE 7.4 mph 7.4 mph 61 % 0.0 in
22:27 24.2 °F 15.9 °F 1016.8 in SW 3.9 mph   60 % 0.0 in
22:30 21.8 °F 16.5 °F 1014.8 in Calm     72 % 0.0 in
22:33 24.2 °F 15.7 °F 1016.8 in SW 2.3 mph   59 % 0.0 in
22:37 24.1 °F 15.8 °F 1017.8 in SW 1.9 mph   60 % 0.0 in
22:40 21.7 °F 16.7 °F 1015.8 in Calm     73 % 0.0 in
22:43 24.0 °F 15.8 °F 1017.8 in Calm     60 % 0.0 in
22:47 24.0 °F 15.8 °F 1017.8 in Calm     60 % 0.0 in
22:50 21.7 °F 16.7 °F 1015.8 in Calm     73 % 0.0 in
22:53 24.0 °F 16.0 °F 1016.8 in ENE 3.7 mph 3.7 mph 61 % 0.0 in
22:58 23.9 °F 16.2 °F 1016.8 in WNW 1.9 mph   62 % 0.0 in
23:00 21.5 °F 16.4 °F 1015.8 in Calm     73 % 0.0 in
23:03 23.9 °F 16.2 °F 1016.8 in NE 2.3 mph 2.3 mph 62 % 0.0 in
23:08 23.9 °F 16.2 °F 1016.8 in NNE 1.9 mph 2.3 mph 62 % 0.0 in
23:10 21.5 °F 16.4 °F 1015.8 in Calm   1.6 mph 73 % 0.0 in
23:13 23.9 °F 16.4 °F 1016.8 in NE 3.7 mph 3.7 mph 63 % 0.0 in
23:18 23.8 °F 16.3 °F 1016.8 in Calm     63 % 0.0 in
23:20 21.4 °F 16.6 °F 1015.8 in Calm     74 % 0.0 in
23:23 23.8 °F 16.3 °F 1016.8 in NE 3.7 mph 3.7 mph 63 % 0.0 in
23:28 23.8 °F 16.3 °F 1016.8 in NNE 1.9 mph 1.9 mph 63 % 0.0 in
23:30 21.3 °F 16.5 °F 1015.8 in Calm     74 % 0.0 in
23:33 23.7 °F 16.2 °F 1016.8 in NNE 3.7 mph 3.7 mph 63 % 0.0 in
23:38 23.7 °F 16.2 °F 1015.8 in NNE 3.7 mph   63 % 0.0 in
23:40 21.2 °F 16.4 °F 1015.8 in Calm     74 % 0.0 in
23:44 23.6 °F 16.2 °F 1015.8 in NNE 1.9 mph   63 % 0.0 in
23:49 23.5 °F 16.1 °F 1015.8 in NNE 3.9 mph 3.9 mph 63 % 0.0 in
23:50 21.0 °F 16.2 °F 1015.8 in Calm     74 % 0.0 in
23:54 23.4 °F 16.2 °F 1015.8 in ENE 3.7 mph 3.7 mph 64 % 0.0 in
23:59 23.4 °F 16.2 °F 1015.8 in NNE 3.7 mph 3.7 mph 64 % 0.0 in
Meteo Sesrovires
Elogis d' Weather Underground - 2 mb

Guio original per  Jim McMurry - jmcmurry@mwt.net Adaptat per a la plantilla per  Wim van der Kuil - Leuven-Template.eu

Trobareu la nostra informacio del temps tambe a:

Weather Underground

AWEKAS